Time;durP1;ratioP1;P1;durP2;ratioP2;P2;SDS_P1;SDS_P2;PMS_P1;PMS_P2;Temp;Humidity;BMP_temperature;BMP_pressure;BME280_temperature;BME280_humidity;BME280_pressure;Samples;Min_cycle;Max_cycle;Signal;HPM_P1;HPM_P2
2023/06/21 00:02:23;;;;;;;1.52;1.05;;;20.80;99.90;;;;;;5147825;27;20125;-68
2023/06/21 00:04:51;;;;;;;0.17;0.13;;;20.80;99.90;;;;;;5146487;27;20122;-68
2023/06/21 00:07:22;;;;;;;0.25;0.25;;;20.70;99.90;;;;;;5136479;27;20039;-68
2023/06/21 00:09:48;;;;;;;2.00;1.50;;;20.70;99.90;;;;;;5142996;27;20126;-68
2023/06/21 00:12:13;;;;;;;0.00;0.00;;;20.70;99.90;;;;;;5147723;27;20117;-68
2023/06/21 00:14:39;;;;;;;1.25;1.15;;;20.70;99.90;;;;;;5143266;27;20043;-68
2023/06/21 00:17:04;;;;;;;0.22;0.22;;;20.60;99.90;;;;;;5142798;27;20043;-68
2023/06/21 00:19:30;;;;;;;0.50;0.38;;;20.60;99.90;;;;;;5144049;27;20482;-68
2023/06/21 00:21:57;;;;;;;0.30;0.30;;;20.50;99.90;;;;;;5154408;27;20035;-68
2023/06/21 00:24:23;;;;;;;0.05;0.05;;;20.50;99.90;;;;;;5144419;27;20125;-68
2023/06/21 00:26:48;;;;;;;0.32;0.32;;;20.60;99.90;;;;;;5144812;27;20035;-68
2023/06/21 00:29:14;;;;;;;1.15;1.05;;;20.60;99.90;;;;;;5124955;27;20042;-68
2023/06/21 00:31:40;;;;;;;0.98;0.95;;;20.60;99.90;;;;;;5144961;27;20454;-68
2023/06/21 00:34:05;;;;;;;0.30;0.30;;;20.50;99.90;;;;;;5146334;27;20053;-68
2023/06/21 00:36:31;;;;;;;0.45;0.45;;;20.50;99.90;;;;;;5149060;27;20042;-68
2023/06/21 00:38:57;;;;;;;0.50;0.30;;;20.60;99.90;;;;;;5145877;27;20038;-68
2023/06/21 00:41:23;;;;;;;0.52;0.28;;;20.50;99.90;;;;;;5125242;27;20126;-68
2023/06/21 00:43:48;;;;;;;13.15;1.45;;;20.60;99.90;;;;;;5142660;27;20078;-68
2023/06/21 00:46:15;;;;;;;1.08;0.93;;;20.50;99.90;;;;;;5145337;27;20039;-68
2023/06/21 00:48:41;;;;;;;0.50;0.50;;;20.50;99.90;;;;;;5123482;27;20059;-68
2023/06/21 00:51:07;;;;;;;0.35;0.10;;;20.40;99.90;;;;;;5150523;27;20035;-68
2023/06/21 00:53:33;;;;;;;0.52;0.45;;;20.40;99.90;;;;;;5140145;27;20070;-68
2023/06/21 00:56:02;;;;;;;0.30;0.30;;;20.50;99.90;;;;;;5146795;27;20046;-68
2023/06/21 00:58:28;;;;;;;0.10;0.10;;;20.40;99.90;;;;;;5142202;27;20531;-68
2023/06/21 01:00:54;;;;;;;1.55;1.25;;;20.40;99.90;;;;;;5141810;27;20106;-68
2023/06/21 01:03:21;;;;;;;1.05;1.05;;;20.30;99.90;;;;;;5151424;27;20034;-68
2023/06/21 01:06:13;;;;;;;0.20;0.20;;;20.30;99.90;;;;;;5145537;27;20094;-68
2023/06/21 01:09:02;;;;;;;1.17;1.08;;;20.30;99.90;;;;;;5147686;27;20046;-68
2023/06/21 01:11:39;;;;;;;7.32;1.00;;;20.30;99.90;;;;;;5142648;27;20043;-68
2023/06/21 01:14:14;;;;;;;0.20;0.20;;;20.10;99.90;;;;;;5126606;27;20054;-68
2023/06/21 01:16:46;;;;;;;0.70;0.70;;;20.10;99.90;;;;;;5144825;27;20035;-67
2023/06/21 01:19:35;;;;;;;0.38;0.38;;;20.10;99.90;;;;;;5127054;27;20114;-68
2023/06/21 01:22:32;;;;;;;0.10;0.10;;;20.00;99.90;;;;;;5141836;27;20077;-68
2023/06/21 01:25:12;;;;;;;1.27;0.82;;;20.00;99.90;;;;;;5131069;27;20047;-68
2023/06/21 01:27:52;;;;;;;0.65;0.65;;;20.10;99.90;;;;;;5141973;27;20115;-68
2023/06/21 01:30:20;;;;;;;0.40;0.35;;;20.00;99.90;;;;;;5145396;27;20501;-68
2023/06/21 01:32:47;;;;;;;0.57;0.57;;;20.00;99.90;;;;;;5145240;27;20064;-68
2023/06/21 01:35:14;;;;;;;0.10;0.10;;;20.00;99.90;;;;;;5145179;27;20140;-68
2023/06/21 01:37:42;;;;;;;0.05;0.05;;;19.90;99.90;;;;;;5141836;27;20500;-68
2023/06/21 01:40:11;;;;;;;1.13;1.02;;;19.90;99.90;;;;;;5142237;27;20047;-68
2023/06/21 01:42:37;;;;;;;0.10;0.10;;;20.00;99.90;;;;;;5124478;27;20039;-68
2023/06/21 01:45:03;;;;;;;0.80;0.75;;;19.90;99.90;;;;;;5144909;27;20031;-68
2023/06/21 01:47:30;;;;;;;0.32;0.32;;;19.90;99.90;;;;;;5141785;27;20039;-68
2023/06/21 01:49:56;;;;;;;2.42;0.52;;;19.80;99.90;;;;;;5143387;27;20086;-68
2023/06/21 01:52:24;;;;;;;0.85;0.85;;;19.80;99.90;;;;;;5137472;27;20039;-68
2023/06/21 01:54:50;;;;;;;1.00;0.40;;;19.80;99.90;;;;;;5119640;27;20074;-68
2023/06/21 01:57:17;;;;;;;1.30;0.93;;;19.70;99.90;;;;;;5142573;27;20047;-68
2023/06/21 01:59:43;;;;;;;0.40;0.40;;;19.70;99.90;;;;;;5126691;27;20053;-68
2023/06/21 02:02:09;;;;;;;0.32;0.32;;;19.70;99.90;;;;;;5140995;27;20137;-68
2023/06/21 02:04:38;;;;;;;0.43;0.30;;;19.70;99.90;;;;;;5142884;27;20031;-68
2023/06/21 02:07:06;;;;;;;0.95;0.88;;;19.70;99.90;;;;;;5142461;27;20059;-68
2023/06/21 02:09:31;;;;;;;1.42;0.73;;;19.70;99.90;;;;;;5141915;27;20054;-68
2023/06/21 02:12:00;;;;;;;0.28;0.28;;;19.60;99.90;;;;;;5128865;27;20402;-68
2023/06/21 02:14:25;;;;;;;1.05;0.70;;;19.60;99.90;;;;;;5125922;27;20042;-68
2023/06/21 02:16:51;;;;;;;1.77;1.10;;;19.50;99.90;;;;;;5140461;27;20046;-68
2023/06/21 02:19:16;;;;;;;0.63;0.57;;;19.60;99.90;;;;;;5138297;27;20039;-68
2023/06/21 02:21:45;;;;;;;0.20;0.20;;;19.60;99.90;;;;;;5144659;27;20103;-68
2023/06/21 02:24:10;;;;;;;0.93;0.85;;;19.70;99.90;;;;;;5149575;27;20160;-68
2023/06/21 02:26:36;;;;;;;0.30;0.25;;;19.70;99.90;;;;;;5144156;27;20084;-68
2023/06/21 02:29:02;;;;;;;0.10;0.00;;;19.60;99.90;;;;;;5144385;27;20039;-68
2023/06/21 02:31:27;;;;;;;0.35;0.35;;;19.60;99.90;;;;;;5140572;27;20487;-68
2023/06/21 02:33:53;;;;;;;0.00;0.00;;;19.70;99.90;;;;;;5136974;27;20424;-68
2023/06/21 02:36:19;;;;;;;0.13;0.13;;;19.70;99.90;;;;;;5141931;27;20046;-67
2023/06/21 02:38:45;;;;;;;0.43;0.43;;;19.60;99.90;;;;;;5143535;27;20457;-68
2023/06/21 02:41:10;;;;;;;0.00;0.00;;;19.60;99.90;;;;;;5144512;27;20075;-68
2023/06/21 02:43:36;;;;;;;9.52;0.50;;;19.60;99.90;;;;;;5144157;27;20043;-68
2023/06/21 02:46:02;;;;;;;0.38;0.38;;;19.60;99.90;;;;;;5137769;27;20085;-68
2023/06/21 02:48:28;;;;;;;0.43;0.43;;;19.60;99.90;;;;;;5125644;28;20494;-68
2023/06/21 02:50:53;;;;;;;0.28;0.28;;;19.60;99.90;;;;;;5124276;27;20049;-68
2023/06/21 02:53:19;;;;;;;3.03;0.28;;;19.60;99.90;;;;;;5141253;27;20043;-67
2023/06/21 02:55:44;;;;;;;0.10;0.10;;;19.60;99.90;;;;;;5144970;27;20039;-68
2023/06/21 02:58:10;;;;;;;0.00;0.00;;;19.60;99.90;;;;;;5141820;27;20031;-68
2023/06/21 03:00:36;;;;;;;0.77;0.40;;;19.50;99.90;;;;;;5141829;27;20138;-68
2023/06/21 03:03:02;;;;;;;2.20;0.20;;;19.50;99.90;;;;;;5142405;27;20035;-67
2023/06/21 03:05:29;;;;;;;0.00;0.00;;;19.60;99.90;;;;;;5142035;27;20050;-67
2023/06/21 03:07:56;;;;;;;0.25;0.25;;;19.50;99.90;;;;;;5141077;27;20036;-68
2023/06/21 03:10:22;;;;;;;1.58;1.35;;;19.50;99.90;;;;;;5143658;27;20515;-67
2023/06/21 03:12:48;;;;;;;0.55;0.55;;;19.50;99.90;;;;;;5146921;27;20117;-67
2023/06/21 03:15:13;;;;;;;0.63;0.32;;;19.50;99.90;;;;;;5146729;27;20105;-67
2023/06/21 03:17:40;;;;;;;2.42;2.22;;;19.50;99.90;;;;;;5143712;27;20039;-67
2023/06/21 03:20:13;;;;;;;7.85;1.55;;;19.50;99.90;;;;;;5146996;27;20046;-67
2023/06/21 03:22:49;;;;;;;;;;;19.40;99.90;;;;;;5126546;27;20047;-67
2023/06/21 03:25:15;;;;;;;0.80;0.65;;;19.40;99.90;;;;;;5148751;27;20009;-67
2023/06/21 03:27:41;;;;;;;0.10;0.10;;;19.40;99.90;;;;;;5145353;27;20046;-67
2023/06/21 03:30:11;;;;;;;0.57;0.57;;;19.40;99.90;;;;;;5145602;27;20038;-67
2023/06/21 03:32:47;;;;;;;0.05;0.05;;;19.40;99.90;;;;;;5146347;27;20134;-68
2023/06/21 03:35:14;;;;;;;0.20;0.20;;;19.30;99.90;;;;;;5147006;27;20047;-67
2023/06/21 03:37:40;;;;;;;5.85;1.08;;;19.30;99.90;;;;;;5145223;27;20042;-67
2023/06/21 03:40:08;;;;;;;0.20;0.20;;;19.30;99.90;;;;;;5128065;27;20053;-67
2023/06/21 03:42:34;;;;;;;0.85;0.85;;;19.30;99.90;;;;;;5146840;27;20389;-67
2023/06/21 03:45:00;;;;;;;0.15;0.15;;;19.20;99.90;;;;;;5143879;27;20038;-67
2023/06/21 03:47:25;;;;;;;0.10;0.10;;;19.20;99.90;;;;;;5147484;27;20050;-67
2023/06/21 03:49:51;;;;;;;0.00;0.00;;;19.20;99.90;;;;;;5140592;27;20050;-67
2023/06/21 03:52:16;;;;;;;0.50;0.43;;;19.20;99.90;;;;;;5147396;27;20027;-67
2023/06/21 03:54:42;;;;;;;0.20;0.20;;;19.30;99.90;;;;;;5145067;27;20042;-67
2023/06/21 03:57:07;;;;;;;0.55;0.55;;;19.30;99.90;;;;;;5133200;27;21152;-67
2023/06/21 03:59:33;;;;;;;0.70;0.45;;;19.20;99.90;;;;;;5143721;27;20502;-67
2023/06/21 04:01:58;;;;;;;0.00;0.00;;;19.20;99.90;;;;;;5142137;27;20781;-67
2023/06/21 04:04:24;;;;;;;1.00;0.80;;;19.20;99.90;;;;;;5132637;27;20046;-67
2023/06/21 04:06:51;;;;;;;3.25;0.30;;;19.20;99.90;;;;;;5143836;27;20035;-67
2023/06/21 04:09:17;;;;;;;0.10;0.10;;;19.20;99.90;;;;;;5126602;27;20049;-67
2023/06/21 04:11:44;;;;;;;2.30;1.13;;;19.20;99.90;;;;;;5145439;27;20422;-67
2023/06/21 04:14:11;;;;;;;0.20;0.20;;;19.10;99.90;;;;;;5149071;27;20537;-67
2023/06/21 04:16:37;;;;;;;1.95;1.13;;;19.10;99.90;;;;;;5142875;27;20043;-67
2023/06/21 04:19:02;;;;;;;0.20;0.20;;;19.10;99.90;;;;;;5142669;27;20043;-67
2023/06/21 04:21:28;;;;;;;0.10;0.10;;;19.10;99.90;;;;;;5144846;27;20463;-67
2023/06/21 04:23:53;;;;;;;0.68;0.47;;;19.10;99.90;;;;;;5144501;27;20039;-67
2023/06/21 04:26:19;;;;;;;3.38;0.68;;;19.10;99.90;;;;;;5146491;27;20449;-67
2023/06/21 04:28:49;;;;;;;0.63;0.43;;;19.10;99.90;;;;;;5140633;27;20077;-67
2023/06/21 04:31:15;;;;;;;0.20;0.17;;;19.00;99.90;;;;;;5142713;27;20383;-67
2023/06/21 04:33:40;;;;;;;0.22;0.15;;;19.10;99.90;;;;;;5144413;27;20096;-67
2023/06/21 04:36:06;;;;;;;0.17;0.17;;;19.10;99.90;;;;;;5146846;27;20035;-67
2023/06/21 04:38:33;;;;;;;2.40;0.65;;;19.10;99.90;;;;;;5124308;27;20077;-67
2023/06/21 04:40:58;;;;;;;0.10;0.10;;;19.20;99.90;;;;;;5143784;27;20058;-67
2023/06/21 04:43:25;;;;;;;0.00;0.00;;;19.20;99.90;;;;;;5146907;27;20039;-67
2023/06/21 04:45:51;;;;;;;0.08;0.08;;;19.20;99.90;;;;;;5141312;27;20050;-67
2023/06/21 04:48:17;;;;;;;0.63;0.63;;;19.20;99.90;;;;;;5141263;27;20508;-67
2023/06/21 04:50:45;;;;;;;0.03;0.03;;;19.20;99.90;;;;;;5144196;27;20039;-67
2023/06/21 04:53:14;;;;;;;0.28;0.28;;;19.20;99.90;;;;;;5140443;27;20034;-67
2023/06/21 04:55:43;;;;;;;1.77;0.32;;;19.20;99.90;;;;;;5143307;27;20035;-67
2023/06/21 04:58:10;;;;;;;0.20;0.20;;;19.20;99.90;;;;;;5145425;27;20169;-67
2023/06/21 05:00:36;;;;;;;1.27;0.47;;;19.20;99.90;;;;;;5142994;27;20164;-67
2023/06/21 05:03:03;;;;;;;0.00;0.00;;;19.20;99.90;;;;;;5143402;27;20437;-67
2023/06/21 05:05:28;;;;;;;0.90;0.90;;;19.30;99.90;;;;;;5143711;27;20035;-67
2023/06/21 05:07:54;;;;;;;1.52;0.38;;;19.30;99.90;;;;;;5144985;27;20049;-67
2023/06/21 05:10:19;;;;;;;0.00;0.00;;;19.30;99.90;;;;;;5142885;27;20427;-67
2023/06/21 05:12:45;;;;;;;0.35;0.30;;;19.30;99.90;;;;;;5145288;27;20414;-67
2023/06/21 05:15:11;;;;;;;0.30;0.30;;;19.30;99.90;;;;;;5142292;27;20062;-67
2023/06/21 05:17:36;;;;;;;1.17;0.65;;;19.30;99.90;;;;;;5148594;27;20039;-67
2023/06/21 05:20:04;;;;;;;0.20;0.20;;;19.30;99.90;;;;;;5146048;27;20108;-67
2023/06/21 05:22:30;;;;;;;0.00;0.00;;;19.40;99.90;;;;;;5145053;27;20455;-67
2023/06/21 05:24:55;;;;;;;0.00;0.00;;;19.40;99.90;;;;;;5145497;27;20107;-67
2023/06/21 05:27:21;;;;;;;0.05;0.05;;;19.40;99.90;;;;;;5124145;27;20039;-67
2023/06/21 05:29:47;;;;;;;0.52;0.52;;;19.40;99.90;;;;;;5144668;27;20493;-67
2023/06/21 05:32:12;;;;;;;3.97;1.73;;;19.40;99.90;;;;;;5144799;27;20107;-67
2023/06/21 05:34:38;;;;;;;3.17;1.02;;;19.40;99.90;;;;;;5138374;27;20039;-66
2023/06/21 05:37:03;;;;;;;0.10;0.10;;;19.50;99.90;;;;;;5130286;27;20061;-67
2023/06/21 05:39:29;;;;;;;0.15;0.08;;;19.50;99.90;;;;;;5141819;27;20035;-67
2023/06/21 05:41:55;;;;;;;0.00;0.00;;;19.50;99.90;;;;;;5142374;27;20042;-67
2023/06/21 05:44:20;;;;;;;0.30;0.30;;;19.60;99.90;;;;;;5140764;27;20039;-67
2023/06/21 05:46:46;;;;;;;0.43;0.35;;;19.60;99.90;;;;;;5148018;27;20042;-67
2023/06/21 05:49:11;;;;;;;0.03;0.03;;;19.60;99.90;;;;;;5137434;27;20050;-67
2023/06/21 05:51:37;;;;;;;0.30;0.20;;;19.60;99.90;;;;;;5143376;27;20042;-67
2023/06/21 05:54:03;;;;;;;1.58;1.10;;;19.60;99.90;;;;;;5149445;27;20379;-67
2023/06/21 05:56:31;;;;;;;0.00;0.00;;;19.60;99.90;;;;;;5142543;27;20043;-67
2023/06/21 05:58:57;;;;;;;1.08;0.30;;;19.60;99.90;;;;;;5142004;27;20912;-67
2023/06/21 06:01:22;;;;;;;1.58;0.85;;;19.70;99.90;;;;;;5143049;27;20043;-67
2023/06/21 06:03:48;;;;;;;0.45;0.38;;;19.70;99.90;;;;;;5141212;27;20047;-67
2023/06/21 06:06:14;;;;;;;0.10;0.10;;;19.70;99.90;;;;;;5143638;27;20046;-67
2023/06/21 06:08:40;;;;;;;0.10;0.10;;;19.70;99.90;;;;;;5144201;27;20130;-67
2023/06/21 06:11:06;;;;;;;1.27;0.38;;;19.70;99.90;;;;;;5147869;27;20125;-67
2023/06/21 06:13:31;;;;;;;0.70;0.15;;;19.70;99.90;;;;;;5144398;27;20045;-67
2023/06/21 06:15:57;;;;;;;2.28;1.65;;;19.80;99.90;;;;;;5141469;27;20778;-67
2023/06/21 06:18:23;;;;;;;0.10;0.10;;;19.80;99.90;;;;;;5142734;27;20108;-67
2023/06/21 06:20:48;;;;;;;0.22;0.15;;;19.90;99.90;;;;;;5144498;27;20045;-66
2023/06/21 06:23:14;;;;;;;1.55;0.65;;;19.80;99.90;;;;;;5122701;27;20098;-67
2023/06/21 06:25:40;;;;;;;0.17;0.17;;;19.90;99.90;;;;;;5144270;27;20074;-66
2023/06/21 06:28:06;;;;;;;1.85;1.75;;;19.90;99.90;;;;;;5144948;27;20049;-66
2023/06/21 06:30:32;;;;;;;0.30;0.30;;;20.00;99.90;;;;;;5142120;27;20054;-66
2023/06/21 06:32:57;;;;;;;0.10;0.10;;;19.90;99.90;;;;;;5142990;27;20225;-67
2023/06/21 06:35:23;;;;;;;1.25;0.30;;;19.90;99.90;;;;;;5140969;27;20373;-66
2023/06/21 06:37:48;;;;;;;3.20;0.95;;;20.00;99.90;;;;;;5140324;27;20053;-67
2023/06/21 06:40:14;;;;;;;0.95;0.88;;;20.00;99.90;;;;;;5124953;28;20051;-67
2023/06/21 06:42:40;;;;;;;0.00;0.00;;;20.00;99.90;;;;;;5141374;27;20160;-67
2023/06/21 06:45:06;;;;;;;2.05;0.47;;;19.90;99.90;;;;;;5147017;27;20039;-67
2023/06/21 06:47:32;;;;;;;0.20;0.20;;;20.00;99.90;;;;;;5142750;27;20031;-66
2023/06/21 06:49:58;;;;;;;0.00;0.00;;;20.00;99.90;;;;;;5145024;27;20555;-66
2023/06/21 06:52:24;;;;;;;0.10;0.10;;;20.00;99.90;;;;;;5145592;27;20060;-66
2023/06/21 06:54:50;;;;;;;0.90;0.52;;;20.10;99.90;;;;;;5151230;27;20035;-67
2023/06/21 06:57:16;;;;;;;0.30;0.17;;;20.10;99.90;;;;;;5148570;27;20039;-67
2023/06/21 06:59:41;;;;;;;0.08;0.08;;;20.20;99.90;;;;;;5148291;27;20035;-66
2023/06/21 07:02:07;;;;;;;0.00;0.00;;;20.20;99.90;;;;;;5127993;27;20497;-67
2023/06/21 07:04:32;;;;;;;0.20;0.20;;;20.30;99.90;;;;;;5144304;27;20042;-67
2023/06/21 07:07:01;;;;;;;0.57;0.57;;;20.40;99.90;;;;;;5146745;27;20074;-67
2023/06/21 07:09:26;;;;;;;0.20;0.20;;;20.40;99.90;;;;;;5145746;27;20081;-66
2023/06/21 07:11:56;;;;;;;0.00;0.00;;;20.40;99.90;;;;;;5125433;27;20901;-66
2023/06/21 07:14:24;;;;;;;0.60;0.30;;;20.50;99.90;;;;;;5128306;27;20056;-69
2023/06/21 07:16:53;;;;;;;0.57;0.57;;;20.40;99.90;;;;;;5155284;27;20108;-67
2023/06/21 07:19:19;;;;;;;1.23;0.70;;;20.40;99.90;;;;;;5134430;27;20043;-66
2023/06/21 07:21:47;;;;;;;0.00;0.00;;;20.40;99.90;;;;;;5146337;27;20035;-66
2023/06/21 07:24:13;;;;;;;0.00;0.00;;;20.50;99.90;;;;;;5147397;27;20050;-66
2023/06/21 07:26:39;;;;;;;0.00;0.00;;;20.50;99.90;;;;;;5124896;27;20034;-66
2023/06/21 07:29:05;;;;;;;0.05;0.05;;;20.60;99.90;;;;;;5145668;27;20504;-66
2023/06/21 07:31:32;;;;;;;0.00;0.00;;;20.70;99.90;;;;;;5144295;27;20051;-66
2023/06/21 07:33:58;;;;;;;0.00;0.00;;;20.80;99.90;;;;;;5146966;27;20510;-67
2023/06/21 07:36:25;;;;;;;0.15;0.15;;;20.80;99.90;;;;;;5142040;27;20051;-68
2023/06/21 07:38:50;;;;;;;0.20;0.10;;;20.80;99.90;;;;;;5149082;27;20057;-66
2023/06/21 07:41:16;;;;;;;0.00;0.00;;;20.90;99.90;;;;;;5144218;27;20039;-67
2023/06/21 07:43:42;;;;;;;1.17;0.80;;;20.90;99.90;;;;;;5123172;27;20051;-67
2023/06/21 07:46:07;;;;;;;0.00;0.00;;;21.00;99.90;;;;;;5146795;27;20039;-66
2023/06/21 07:48:35;;;;;;;0.00;0.00;;;21.00;99.90;;;;;;5147480;27;20394;-67
2023/06/21 07:51:01;;;;;;;0.00;0.00;;;21.00;99.90;;;;;;5144895;27;20047;-67
2023/06/21 07:53:27;;;;;;;0.68;0.47;;;21.10;99.90;;;;;;5141988;27;20402;-67
2023/06/21 07:55:53;;;;;;;0.13;0.13;;;21.10;99.90;;;;;;5147379;27;20046;-67
2023/06/21 07:58:18;;;;;;;0.00;0.00;;;21.10;99.90;;;;;;5142752;27;20086;-67
2023/06/21 08:00:44;;;;;;;0.00;0.00;;;21.10;99.90;;;;;;5146845;27;20039;-67
2023/06/21 08:03:09;;;;;;;0.20;0.20;;;21.30;99.90;;;;;;5145188;27;20086;-67
2023/06/21 08:05:35;;;;;;;0.05;0.05;;;21.30;99.90;;;;;;5146388;27;20042;-67
2023/06/21 08:08:01;;;;;;;0.43;0.43;;;21.30;99.90;;;;;;5143951;27;20066;-67
2023/06/21 08:10:27;;;;;;;2.30;0.38;;;21.40;99.90;;;;;;5146922;27;20066;-67
2023/06/21 08:12:53;;;;;;;0.88;0.47;;;21.50;99.90;;;;;;5128168;27;20043;-67
2023/06/21 08:15:18;;;;;;;0.22;0.22;;;21.40;99.90;;;;;;5142838;27;20096;-67
2023/06/21 08:17:44;;;;;;;1.75;0.65;;;21.50;99.90;;;;;;5148321;27;20039;-67
2023/06/21 08:20:10;;;;;;;0.20;0.20;;;21.50;99.90;;;;;;5148671;27;20041;-67
2023/06/21 08:22:36;;;;;;;0.17;0.17;;;21.60;99.90;;;;;;5145089;27;20050;-67
2023/06/21 08:25:02;;;;;;;2.53;0.30;;;21.60;99.90;;;;;;5146761;27;20045;-67
2023/06/21 08:27:27;;;;;;;0.03;0.03;;;21.70;99.90;;;;;;5139302;27;20478;-66
2023/06/21 08:29:53;;;;;;;0.00;0.00;;;21.70;99.90;;;;;;5143765;27;20362;-67
2023/06/21 08:32:19;;;;;;;0.10;0.10;;;21.70;99.90;;;;;;5146382;27;20513;-67
2023/06/21 08:34:46;;;;;;;2.53;0.80;;;21.70;99.90;;;;;;5143983;27;20047;-67
2023/06/21 08:37:11;;;;;;;0.10;0.10;;;21.80;99.90;;;;;;5141756;27;20390;-67
2023/06/21 08:39:37;;;;;;;0.00;0.00;;;21.90;99.90;;;;;;5145051;27;20034;-67
2023/06/21 08:42:03;;;;;;;0.17;0.17;;;21.90;99.90;;;;;;5144393;27;20042;-67
2023/06/21 08:44:28;;;;;;;0.10;0.10;;;22.00;99.90;;;;;;5145091;27;20058;-66
2023/06/21 08:46:55;;;;;;;0.00;0.00;;;22.00;99.90;;;;;;5151196;27;20450;-67
2023/06/21 08:49:25;;;;;;;8.88;0.28;;;22.00;99.90;;;;;;5145790;27;20524;-67
2023/06/21 08:51:53;;;;;;;0.65;0.65;;;22.10;99.90;;;;;;5142969;27;20093;-67
2023/06/21 08:54:23;;;;;;;0.05;0.05;;;22.10;99.90;;;;;;5153940;27;20554;-67
2023/06/21 08:56:53;;;;;;;0.13;0.13;;;22.10;99.90;;;;;;5142938;27;20074;-67
2023/06/21 08:59:34;;;;;;;0.50;0.50;;;22.10;99.90;;;;;;5139980;27;20516;-67
2023/06/21 09:02:20;;;;;;;0.10;0.10;;;22.30;99.90;;;;;;5147662;27;20049;-67
2023/06/21 09:04:49;;;;;;;0.57;0.38;;;22.50;99.90;;;;;;5143682;27;20523;-67
2023/06/21 09:07:15;;;;;;;0.20;0.20;;;22.60;99.90;;;;;;5124851;27;20051;-67
2023/06/21 09:09:45;;;;;;;1.45;0.45;;;22.60;99.90;;;;;;5142170;27;20031;-67
2023/06/21 09:12:16;;;;;;;0.17;0.10;;;22.60;99.90;;;;;;5147212;27;20125;-67
2023/06/21 09:14:42;;;;;;;0.32;0.32;;;22.60;99.90;;;;;;5143253;27;20070;-67
2023/06/21 09:17:08;;;;;;;0.45;0.22;;;22.70;99.90;;;;;;5141775;27;20154;-67
2023/06/21 09:19:35;;;;;;;0.00;0.00;;;22.80;99.90;;;;;;5124515;27;20039;-67
2023/06/21 09:22:01;;;;;;;0.03;0.03;;;22.80;99.90;;;;;;5142389;27;20031;-67
2023/06/21 09:24:26;;;;;;;0.20;0.20;;;22.80;99.90;;;;;;5141067;27;20542;-67
2023/06/21 09:26:52;;;;;;;0.00;0.00;;;22.80;99.90;;;;;;5148694;27;20039;-67
2023/06/21 09:29:18;;;;;;;1.02;0.47;;;22.90;99.90;;;;;;5142666;27;20035;-66
2023/06/21 09:31:44;;;;;;;0.10;0.10;;;23.00;99.90;;;;;;5143217;27;20055;-68
2023/06/21 09:34:10;;;;;;;1.27;0.80;;;23.00;99.90;;;;;;5144617;27;20054;-67
2023/06/21 09:36:35;;;;;;;0.00;0.00;;;23.00;99.90;;;;;;5143007;27;20049;-68
2023/06/21 09:39:11;;;;;;;0.00;0.00;;;23.00;99.90;;;;;;5145184;27;20030;-68
2023/06/21 09:41:38;;;;;;;1.30;0.60;;;23.00;99.90;;;;;;5144288;27;20047;-67
2023/06/21 09:44:04;;;;;;;0.15;0.10;;;23.00;99.90;;;;;;5141449;27;20113;-66
2023/06/21 09:46:30;;;;;;;0.00;0.00;;;23.30;99.90;;;;;;5146218;27;20130;-67
2023/06/21 09:49:09;;;;;;;0.08;0.03;;;23.70;99.90;;;;;;5141551;27;20050;-67
2023/06/21 09:51:42;;;;;;;0.45;0.40;;;24.10;99.90;;;;;;5133854;27;20043;-67
2023/06/21 09:54:08;;;;;;;0.10;0.10;;;24.30;99.90;;;;;;5147428;27;20470;-67
2023/06/21 09:56:36;;;;;;;0.10;0.10;;;24.50;99.90;;;;;;5144227;27;20062;-67
2023/06/21 09:59:02;;;;;;;0.15;0.15;;;24.70;99.90;;;;;;5143524;27;20034;-66
2023/06/21 10:01:40;;;;;;;0.10;0.10;;;24.90;99.90;;;;;;5140942;27;20042;-67
2023/06/21 10:04:10;;;;;;;0.00;0.00;;;25.20;99.90;;;;;;5148805;27;20043;-67
2023/06/21 10:06:36;;;;;;;0.30;0.22;;;25.40;99.90;;;;;;5144580;27;20042;-67
2023/06/21 10:09:08;;;;;;;0.15;0.15;;;25.50;99.90;;;;;;5140802;27;20595;-67
2023/06/21 10:11:33;;;;;;;0.15;0.15;;;25.50;99.90;;;;;;5149199;27;20057;-67
2023/06/21 10:13:59;;;;;;;0.22;0.17;;;25.70;99.90;;;;;;5148403;27;20039;-67
2023/06/21 10:16:26;;;;;;;0.63;0.63;;;25.60;99.90;;;;;;5143249;27;20118;-66
2023/06/21 10:18:53;;;;;;;0.13;0.13;;;25.50;99.90;;;;;;5142273;27;20401;-67
2023/06/21 10:21:21;;;;;;;0.10;0.10;;;25.50;99.90;;;;;;5137385;27;20494;-66
2023/06/21 10:23:49;;;;;;;0.17;0.10;;;25.20;99.90;;;;;;5148042;27;20541;-66
2023/06/21 10:26:17;;;;;;;0.10;0.10;;;25.10;99.90;;;;;;5144246;27;20035;-66
2023/06/21 10:28:45;;;;;;;0.10;0.10;;;25.30;99.90;;;;;;5147316;27;20431;-67
2023/06/21 10:31:12;;;;;;;1.45;0.65;;;25.50;99.90;;;;;;5138418;27;20054;-67
2023/06/21 10:33:38;;;;;;;3.38;0.60;;;25.30;99.90;;;;;;5142198;27;20055;-66
2023/06/21 10:36:09;;;;;;;0.10;0.10;;;25.30;99.90;;;;;;5143937;27;20081;-66
2023/06/21 10:38:47;;;;;;;1.55;0.55;;;25.50;99.90;;;;;;5143982;27;20051;-66
2023/06/21 10:41:14;;;;;;;0.05;0.05;;;25.70;99.90;;;;;;5145395;27;20057;-66
2023/06/21 10:43:41;;;;;;;0.20;0.20;;;25.60;99.90;;;;;;5141523;27;20085;-67
2023/06/21 10:46:09;;;;;;;0.60;0.60;;;25.60;99.90;;;;;;5143372;27;20078;-68
2023/06/21 10:48:36;;;;;;;0.10;0.10;;;25.50;99.90;;;;;;5142787;27;20494;-68
2023/06/21 10:51:02;;;;;;;0.70;0.63;;;25.40;99.90;;;;;;5142755;27;20440;-67
2023/06/21 10:53:36;;;;;;;0.65;0.65;;;25.30;99.90;;;;;;5144152;27;20043;-67
2023/06/21 10:56:07;;;;;;;1.33;0.70;;;25.00;99.90;;;;;;5138120;27;20047;-67
2023/06/21 10:58:33;;;;;;;11.40;0.80;;;25.00;99.90;;;;;;5146337;27;20043;-67
2023/06/21 11:01:00;;;;;;;2.80;1.25;;;25.30;99.90;;;;;;5141614;27;20054;-67
2023/06/21 11:03:27;;;;;;;0.98;0.90;;;25.60;99.90;;;;;;5142778;27;20047;-67
2023/06/21 11:05:54;;;;;;;0.13;0.03;;;25.70;99.90;;;;;;5143381;27;20094;-67
2023/06/21 11:08:37;;;;;;;0.30;0.30;;;25.90;99.90;;;;;;5143183;27;20054;-67
2023/06/21 11:11:02;;;;;;;1.35;0.93;;;25.70;99.90;;;;;;5143265;27;20087;-67
2023/06/21 11:13:39;;;;;;;0.20;0.20;;;25.60;99.90;;;;;;5136409;27;20032;-67
2023/06/21 11:16:17;;;;;;;0.25;0.22;;;25.70;99.90;;;;;;5132485;27;20122;-67
2023/06/21 11:18:55;;;;;;;0.17;0.17;;;25.50;99.90;;;;;;5140108;27;20479;-66
2023/06/21 11:21:53;;;;;;;0.35;0.32;;;25.20;99.90;;;;;;5127014;27;20393;-67
2023/06/21 11:24:20;;;;;;;0.00;0.00;;;25.50;99.90;;;;;;5086354;27;20054;-66
2023/06/21 11:27:02;;;;;;;7.43;2.58;;;25.50;99.90;;;;;;5140415;27;20055;-67
2023/06/21 11:29:37;;;;;;;0.17;0.17;;;25.30;99.90;;;;;;5146611;27;20042;-66
2023/06/21 11:32:08;;;;;;;6.30;2.05;;;25.70;99.90;;;;;;5143704;27;20065;-67
2023/06/21 11:34:34;;;;;;;1.35;0.98;;;26.00;99.90;;;;;;5145403;27;20481;-67
2023/06/21 11:37:34;;;;;;;1.00;0.85;;;25.90;99.90;;;;;;5151715;27;20069;-67
2023/06/21 11:40:02;;;;;;;17.35;0.90;;;25.50;99.90;;;;;;5144338;27;20115;-67
2023/06/21 11:42:34;;;;;;;1.58;0.47;;;25.70;99.90;;;;;;5148964;27;20043;-67
2023/06/21 11:45:32;;;;;;;3.22;1.73;;;26.10;99.90;;;;;;5142363;27;20042;-67
2023/06/21 11:48:10;;;;;;;0.55;0.55;;;25.80;99.90;;;;;;5125659;27;20051;-66
2023/06/21 11:50:43;;;;;;;0.03;0.03;;;26.10;99.90;;;;;;5149263;27;20043;-67
2023/06/21 11:53:26;;;;;;;1.17;1.08;;;25.70;99.90;;;;;;5147022;27;20042;-66
2023/06/21 11:55:55;;;;;;;0.10;0.10;;;26.00;99.90;;;;;;5143419;27;20133;-66
2023/06/21 11:58:21;;;;;;;2.13;0.52;;;26.10;99.90;;;;;;5146494;27;20580;-67
2023/06/21 12:00:47;;;;;;;0.85;0.30;;;26.10;99.90;;;;;;5128493;27;20035;-67
2023/06/21 12:03:17;;;;;;;0.22;0.22;;;26.20;99.90;;;;;;5142566;27;20043;-67
2023/06/21 12:05:55;;;;;;;1.65;1.35;;;26.50;99.90;;;;;;5147430;27;20053;-67
2023/06/21 12:08:23;;;;;;;0.70;0.32;;;26.80;99.90;;;;;;5143750;27;20050;-66
2023/06/21 12:10:48;;;;;;;0.05;0.05;;;26.90;99.90;;;;;;5139121;27;20042;-67
2023/06/21 12:13:17;;;;;;;0.82;0.75;;;27.10;99.90;;;;;;5144006;27;20043;-66
2023/06/21 12:15:56;;;;;;;3.10;1.77;;;27.00;99.90;;;;;;5146813;27;20110;-67
2023/06/21 12:18:23;;;;;;;0.63;0.22;;;26.80;99.90;;;;;;5143852;27;20039;-67
2023/06/21 12:20:50;;;;;;;0.80;0.22;;;26.60;99.90;;;;;;5141131;27;20062;-67
2023/06/21 12:23:16;;;;;;;0.15;0.15;;;26.40;99.90;;;;;;5145964;27;20043;-67
2023/06/21 12:25:47;;;;;;;0.00;0.00;;;26.10;99.90;;;;;;5141779;27;20065;-67
2023/06/21 12:28:13;;;;;;;0.63;0.63;;;26.60;99.90;;;;;;5147440;27;20045;-67
2023/06/21 12:30:47;;;;;;;0.15;0.15;;;26.70;99.90;;;;;;5143695;27;20572;-66
2023/06/21 12:33:13;;;;;;;0.00;0.00;;;26.90;99.90;;;;;;5145618;27;20502;-66
2023/06/21 12:35:39;;;;;;;22.88;0.95;;;27.20;99.90;;;;;;5151578;27;20099;-66
2023/06/21 12:38:24;;;;;;;0.43;0.30;;;27.20;99.90;;;;;;5143076;27;20066;-67
2023/06/21 12:40:54;;;;;;;0.22;0.22;;;27.30;99.90;;;;;;5145592;27;20039;-66
2023/06/21 12:43:38;;;;;;;0.85;0.55;;;27.20;99.90;;;;;;5145428;27;20104;-67
2023/06/21 12:46:06;;;;;;;1.23;0.47;;;26.90;99.90;;;;;;5142773;27;20039;-67
2023/06/21 12:48:33;;;;;;;0.45;0.38;;;26.90;99.90;;;;;;5123127;27;20104;-67
2023/06/21 12:51:00;;;;;;;1.08;0.98;;;26.50;99.90;;;;;;5126564;27;20126;-67
2023/06/21 12:53:30;;;;;;;0.85;0.20;;;26.70;99.90;;;;;;5150381;27;20133;-67